Time;durP1;ratioP1;P1;durP2;ratioP2;P2;SDS_P1;SDS_P2;PMS_P1;PMS_P2;Temp;Humidity;BMP_temperature;BMP_pressure;BME280_temperature;BME280_humidity;BME280_pressure;Samples;Min_cycle;Max_cycle;Signal;HPM_P1;HPM_P2
2022/05/27 00:01:26;;;;;;;16.20;11.50;;;;;;;13.85;100.00;100753.69;5056241;28;19919;-69
2022/05/27 00:03:54;;;;;;;18.30;11.43;;;;;;;13.86;100.00;100758.03;5034961;28;20127;-69
2022/05/27 00:06:22;;;;;;;15.73;11.93;;;;;;;13.80;100.00;100751.38;5051338;28;20678;-69
2022/05/27 00:08:49;;;;;;;20.15;11.70;;;;;;;13.75;100.00;100752.66;5052078;28;20056;-69
2022/05/27 00:11:17;;;;;;;14.85;12.15;;;;;;;13.71;100.00;100737.94;5062358;28;20066;-69
2022/05/27 00:13:44;;;;;;;17.38;12.02;;;;;;;13.76;100.00;100738.47;5043822;28;20057;-69
2022/05/27 00:16:12;;;;;;;20.70;13.82;;;;;;;13.72;100.00;100731.69;5056176;28;20048;-69
2022/05/27 00:18:39;;;;;;;17.23;14.35;;;;;;;13.64;100.00;100735.72;5070809;28;20115;-70
2022/05/27 00:21:07;;;;;;;18.10;13.73;;;;;;;13.55;100.00;100733.69;5047559;28;20048;-69
2022/05/27 00:23:35;;;;;;;16.38;13.25;;;;;;;13.54;100.00;100725.88;5026478;28;20095;-69
2022/05/27 00:26:03;;;;;;;19.48;14.40;;;;;;;13.52;100.00;100725.16;5043920;28;20360;-69
2022/05/27 00:28:30;;;;;;;16.45;13.18;;;;;;;13.56;100.00;100724.00;5037461;28;20049;-68
2022/05/27 00:30:58;;;;;;;15.38;12.68;;;;;;;13.60;100.00;100720.19;5052892;28;20409;-69
2022/05/27 00:33:25;;;;;;;17.27;13.35;;;;;;;13.53;100.00;100705.69;5056706;28;20140;-68
2022/05/27 00:35:52;;;;;;;16.55;13.13;;;;;;;13.49;100.00;100715.63;5042104;28;20112;-71
2022/05/27 00:38:19;;;;;;;14.48;11.90;;;;;;;13.51;100.00;100704.94;5056593;28;20089;-69
2022/05/27 00:40:49;;;;;;;13.68;11.27;;;;;;;13.52;100.00;100707.50;5051317;28;20392;-70
2022/05/27 00:43:16;;;;;;;14.82;11.50;;;;;;;13.53;100.00;100710.97;5031088;28;20499;-70
2022/05/27 00:45:48;;;;;;;14.27;9.50;;;;;;;13.50;100.00;100708.53;5032993;28;20053;-69
2022/05/27 00:48:19;;;;;;;11.73;9.18;;;;;;;13.50;100.00;100695.31;5041725;28;20036;-70
2022/05/27 00:50:48;;;;;;;12.32;10.27;;;;;;;13.52;100.00;100699.56;5051555;28;20589;-71
2022/05/27 00:53:39;;;;;;;10.05;8.88;;;;;;;13.50;100.00;100687.38;5024338;28;20055;-69
2022/05/27 00:56:08;;;;;;;13.80;9.05;;;;;;;13.49;100.00;100686.53;5052028;28;20052;-69
2022/05/27 00:58:50;;;;;;;12.93;10.18;;;;;;;13.50;100.00;100687.38;5058787;28;20038;-69
2022/05/27 01:01:18;;;;;;;11.18;9.82;;;;;;;13.52;100.00;100678.41;5045746;28;20040;-70
2022/05/27 01:03:46;;;;;;;14.20;8.75;;;;;;;13.54;100.00;100684.41;5041446;28;20167;-70
2022/05/27 01:06:13;;;;;;;10.18;8.95;;;;;;;13.54;100.00;100689.69;5048510;28;20060;-69
2022/05/27 01:08:41;;;;;;;11.80;8.93;;;;;;;13.54;100.00;100679.13;5046963;28;20380;-71
2022/05/27 01:11:20;;;;;;;11.07;8.88;;;;;;;13.56;100.00;100686.97;5051887;28;20417;-70
2022/05/27 01:13:56;;;;;;;10.80;9.00;;;;;;;13.49;100.00;100690.97;5075380;28;20052;-70
2022/05/27 01:16:41;;;;;;;13.20;9.77;;;;;;;13.48;100.00;100673.44;5035924;28;20233;-71
2022/05/27 01:22:36;;;;;;;13.03;10.13;;;;;;;13.48;100.00;100671.63;5050745;28;20071;-70
2022/05/27 01:25:22;;;;;;;13.60;10.40;;;;;;;13.49;100.00;100667.19;5051930;28;20056;-70
2022/05/27 01:28:16;;;;;;;12.02;10.82;;;;;;;13.52;100.00;100669.63;5062359;28;20514;-68
2022/05/27 01:31:11;;;;;;;12.20;10.88;;;;;;;13.52;100.00;100680.19;5067074;28;20055;-70
2022/05/27 01:33:41;;;;;;;15.80;11.07;;;;;;;13.50;100.00;100659.13;5049683;28;20048;-70
2022/05/27 01:36:17;;;;;;;15.57;11.25;;;;;;;13.50;100.00;100666.22;5072123;28;20118;-71
2022/05/27 01:38:52;;;;;;;15.77;11.65;;;;;;;13.50;100.00;100659.13;5026323;28;20044;-71
2022/05/27 01:41:24;;;;;;;;;;;;;;;13.50;100.00;100655.63;5036168;28;21080;-69
2022/05/27 01:43:59;;;;;;;13.30;11.90;;;;;;;13.50;100.00;100663.56;5048676;28;19920;-70
2022/05/27 01:46:32;;;;;;;14.85;12.35;;;;;;;13.47;100.00;100656.72;5046101;28;20188;-71
2022/05/27 01:49:23;;;;;;;15.05;12.27;;;;;;;13.55;100.00;100650.88;5055870;28;20048;-70
2022/05/27 01:52:04;;;;;;;13.95;12.40;;;;;;;13.57;100.00;100643.69;5062772;28;20513;-72
2022/05/27 01:54:39;;;;;;;17.30;13.70;;;;;;;13.57;100.00;100644.53;5059151;28;20048;-70
2022/05/27 01:57:17;;;;;;;15.85;12.70;;;;;;;13.55;100.00;100638.47;5051893;28;20139;-70
2022/05/27 01:59:51;;;;;;;15.57;13.73;;;;;;;13.56;100.00;100634.91;5033842;28;20539;-69
2022/05/27 02:02:21;;;;;;;15.00;13.40;;;;;;;13.59;100.00;100647.06;5037313;28;20818;-69
2022/05/27 02:05:07;;;;;;;17.35;13.63;;;;;;;13.57;100.00;100644.53;5050827;28;20148;-70
2022/05/27 02:07:45;;;;;;;13.13;11.93;;;;;;;13.61;100.00;100642.50;5046177;28;20063;-70
2022/05/27 02:10:20;;;;;;;14.70;12.93;;;;;;;13.63;100.00;100641.44;5033635;28;20107;-71
2022/05/27 02:12:52;;;;;;;15.23;13.82;;;;;;;13.62;100.00;100639.75;5029992;28;20499;-72
2022/05/27 02:15:28;;;;;;;14.75;13.10;;;;;;;13.62;100.00;100641.56;5046782;28;20044;-71
2022/05/27 02:17:57;;;;;;;;;;;;;;;13.62;100.00;100642.41;5048696;28;20045;-72
2022/05/27 02:20:29;;;;;;;15.65;13.45;;;;;;;13.60;100.00;100638.19;5045795;28;19927;-69
2022/05/27 02:23:04;;;;;;;16.35;13.25;;;;;;;13.56;100.00;100628.78;5046319;28;20052;-71
2022/05/27 02:25:38;;;;;;;14.10;12.70;;;;;;;13.61;100.00;100631.94;5014954;28;20054;-71
2022/05/27 02:28:13;;;;;;;15.68;13.40;;;;;;;13.61;100.00;100635.41;5036965;28;20495;-70
2022/05/27 02:30:44;;;;;;;16.80;13.65;;;;;;;13.64;100.00;100629.03;5028596;28;20407;-70
2022/05/27 02:36:33;;;;;;;17.58;14.70;;;;;;;13.67;100.00;100634.97;5068031;28;20053;-70
2022/05/27 02:39:00;;;;;;;16.98;13.25;;;;;;;13.68;100.00;100631.38;5029837;28;20048;-70
2022/05/27 02:41:49;;;;;;;17.48;14.45;;;;;;;13.65;100.00;100634.25;5049028;28;20059;-71
2022/05/27 02:44:32;;;;;;;16.15;13.20;;;;;;;13.67;100.00;100636.78;5054032;28;20154;-70
2022/05/27 02:47:07;;;;;;;16.33;14.57;;;;;;;13.66;100.00;100641.22;5068530;28;20059;-70
2022/05/27 02:49:54;;;;;;;19.00;14.68;;;;;;;13.68;100.00;100643.75;5032893;28;20056;-70
2022/05/27 02:52:54;;;;;;;14.38;12.45;;;;;;;13.70;100.00;100639.22;5053684;28;20509;-69
2022/05/27 02:55:50;;;;;;;14.25;12.07;;;;;;;13.69;100.00;100629.59;5027568;28;20383;-69
2022/05/27 02:58:17;;;;;;;14.48;12.27;;;;;;;13.69;100.00;100621.66;5049608;28;20059;-70
2022/05/27 03:00:45;;;;;;;17.77;11.27;;;;;;;13.72;100.00;100625.84;5045871;28;20135;-69
2022/05/27 03:03:12;;;;;;;12.85;11.40;;;;;;;13.74;100.00;100632.75;5031675;28;20040;-71
2022/05/27 03:06:19;;;;;;;12.73;10.85;;;;;;;13.75;100.00;100633.59;5066628;28;20462;-69
2022/05/27 03:09:01;;;;;;;14.38;10.00;;;;;;;13.73;100.00;100624.91;5045969;28;20074;-71
2022/05/27 03:11:45;;;;;;;10.88;9.65;;;;;;;13.74;100.00;100623.97;5071519;28;20056;-70
2022/05/27 03:14:40;;;;;;;15.25;9.70;;;;;;;13.77;100.00;100632.50;5063012;28;20126;-71
2022/05/27 03:17:25;;;;;;;10.48;9.40;;;;;;;13.76;100.00;100625.53;5045914;28;20056;-69
2022/05/27 03:20:05;;;;;;;13.00;9.32;;;;;;;13.77;100.00;100619.28;5047049;28;20050;-70
2022/05/27 03:22:55;;;;;;;10.80;9.27;;;;;;;13.76;100.00;100617.59;5037625;28;20072;-70
2022/05/27 03:25:45;;;;;;;11.25;8.25;;;;;;;13.78;100.00;100612.19;5048775;28;20045;-70
2022/05/27 03:28:32;;;;;;;10.80;9.02;;;;;;;13.75;100.00;100615.91;5032067;28;20051;-71
2022/05/27 03:31:04;;;;;;;10.23;8.32;;;;;;;13.78;100.00;100618.34;5036913;28;20047;-69
2022/05/27 03:33:39;;;;;;;10.45;7.88;;;;;;;13.79;100.00;100611.25;5060261;28;20048;-69
2022/05/27 03:36:28;;;;;;;9.65;8.55;;;;;;;13.80;100.00;100615.56;5047357;28;20099;-70
2022/05/27 03:39:01;;;;;;;9.82;8.32;;;;;;;13.79;100.00;100613.91;5055959;28;20517;-68
2022/05/27 03:41:42;;;;;;;11.15;8.48;;;;;;;13.81;100.00;100623.38;5040544;28;20087;-70
2022/05/27 03:44:14;;;;;;;11.95;8.50;;;;;;;13.83;100.00;100620.66;5050866;28;20567;-70
2022/05/27 03:46:41;;;;;;;13.80;8.60;;;;;;;13.84;100.00;100622.34;5043467;28;20056;-69
2022/05/27 03:49:09;;;;;;;11.45;7.82;;;;;;;13.79;100.00;100617.38;5063784;28;20550;-70
2022/05/27 03:51:50;;;;;;;8.45;7.57;;;;;;;13.81;100.00;100619.91;5066597;28;20057;-71
2022/05/27 03:54:17;;;;;;;10.40;8.15;;;;;;;13.80;100.00;100618.22;5039351;28;20142;-69
2022/05/27 03:56:44;;;;;;;13.85;8.35;;;;;;;13.80;100.00;100611.13;5038862;28;20067;-71
2022/05/27 03:59:13;;;;;;;10.15;7.90;;;;;;;13.80;100.00;100611.13;5054317;28;20091;-70
2022/05/27 04:01:44;;;;;;;13.07;8.75;;;;;;;13.79;100.00;100613.91;5049116;28;20040;-70
2022/05/27 04:04:13;;;;;;;10.57;8.60;;;;;;;13.83;100.00;100623.31;5050918;28;20051;-70
2022/05/27 04:06:41;;;;;;;15.75;9.07;;;;;;;13.68;100.00;100627.88;5053070;28;20078;-69
2022/05/27 04:09:08;;;;;;;9.77;8.45;;;;;;;13.71;100.00;100622.38;5060755;28;20474;-70
2022/05/27 04:11:36;;;;;;;14.23;8.88;;;;;;;13.72;100.00;100637.28;5049349;28;20051;-70
2022/05/27 04:14:03;;;;;;;14.23;9.18;;;;;;;13.73;100.00;100620.44;5042858;28;20051;-69
2022/05/27 04:16:30;;;;;;;17.02;9.77;;;;;;;13.71;100.00;100619.72;5036698;28;20522;-70
2022/05/27 04:18:57;;;;;;;15.88;9.68;;;;;;;13.73;100.00;100627.53;5054352;28;20048;-69
2022/05/27 04:21:25;;;;;;;15.02;9.32;;;;;;;13.74;100.00;100616.03;5051281;28;20482;-71
2022/05/27 04:23:52;;;;;;;13.32;8.65;;;;;;;13.73;100.00;100619.59;5042744;28;20037;-70
2022/05/27 04:26:19;;;;;;;15.27;9.85;;;;;;;13.76;100.00;100619.41;5047418;28;20047;-70
2022/05/27 04:28:46;;;;;;;15.15;9.68;;;;;;;13.77;100.00;100610.50;5074399;28;20052;-69
2022/05/27 04:31:13;;;;;;;12.35;10.07;;;;;;;13.75;100.00;100612.41;5051105;28;20048;-70
2022/05/27 04:33:41;;;;;;;17.60;10.13;;;;;;;13.73;100.00;100614.31;5042642;28;20056;-69
2022/05/27 04:36:08;;;;;;;13.70;10.30;;;;;;;13.75;100.00;100612.41;5057774;28;20049;-69
2022/05/27 04:38:36;;;;;;;13.98;10.20;;;;;;;13.79;100.00;100600.66;5039565;28;20052;-71
2022/05/27 04:41:04;;;;;;;14.50;9.93;;;;;;;13.74;100.00;100608.94;5067085;28;20063;-71
2022/05/27 04:43:33;;;;;;;11.65;9.23;;;;;;;13.74;100.00;100605.44;5054743;28;20405;-71
2022/05/27 04:46:02;;;;;;;14.18;9.60;;;;;;;13.75;100.00;100613.25;5050043;28;20064;-71
2022/05/27 04:48:29;;;;;;;14.55;10.35;;;;;;;13.81;100.00;100619.91;5071850;28;20075;-69
2022/05/27 04:50:56;;;;;;;10.63;9.52;;;;;;;13.84;100.00;100622.34;5051414;28;20056;-70
2022/05/27 04:53:24;;;;;;;11.05;9.15;;;;;;;13.82;100.00;100635.66;5040320;28;20064;-69
2022/05/27 04:56:01;;;;;;;11.55;9.48;;;;;;;13.80;100.00;100620.88;5056680;28;20052;-71
2022/05/27 04:58:28;;;;;;;13.95;10.77;;;;;;;13.86;100.00;100628.34;5049429;28;20059;-69
2022/05/27 05:00:58;;;;;;;12.70;8.77;;;;;;;13.88;100.00;100629.09;5058101;28;20091;-69
2022/05/27 05:03:26;;;;;;;17.38;9.90;;;;;;;13.82;100.00;100630.38;5076787;28;20047;-71
2022/05/27 05:05:53;;;;;;;18.23;10.93;;;;;;;13.81;100.00;100622.56;5045767;28;20072;-70
2022/05/27 05:08:36;;;;;;;11.20;9.48;;;;;;;13.83;100.00;100621.50;5064346;28;20056;-70
2022/05/27 05:11:04;;;;;;;19.63;9.93;;;;;;;13.78;100.00;100630.69;5053558;28;20515;-71
2022/05/27 05:13:33;;;;;;;17.77;10.10;;;;;;;13.82;100.00;100640.09;5051719;28;20063;-70
2022/05/27 05:16:01;;;;;;;19.73;11.00;;;;;;;13.84;100.00;100644.34;5025473;28;20052;-70
2022/05/27 05:18:28;;;;;;;16.20;9.65;;;;;;;13.87;100.00;100641.50;5037310;28;20059;-70
2022/05/27 05:20:56;;;;;;;13.77;9.43;;;;;;;13.91;100.00;100642.97;5055157;28;20052;-70
2022/05/27 05:23:23;;;;;;;10.43;8.57;;;;;;;13.86;100.00;100650.34;5052200;28;20173;-70
2022/05/27 05:25:51;;;;;;;17.73;8.60;;;;;;;13.83;100.00;100653.25;5021009;28;20538;-69
2022/05/27 05:28:18;;;;;;;15.68;9.57;;;;;;;13.85;100.00;100648.69;5055557;28;20059;-71
2022/05/27 05:30:45;;;;;;;20.10;9.13;;;;;;;13.83;100.00;100642.66;5053426;28;20131;-70
2022/05/27 05:33:13;;;;;;;11.68;8.07;;;;;;;13.82;100.00;100643.59;5042100;28;20631;-70
2022/05/27 05:35:40;;;;;;;14.73;8.27;;;;;;;13.71;100.00;100656.75;5052082;28;20063;-70
2022/05/27 05:38:07;;;;;;;16.67;7.57;;;;;;;13.57;100.00;100652.47;5068234;28;20095;-69
2022/05/27 05:40:34;;;;;;;11.95;6.85;;;;;;;13.64;100.00;100655.50;5049894;28;20431;-71
2022/05/27 05:43:02;;;;;;;12.05;6.85;;;;;;;13.65;100.00;100644.84;5054943;28;20044;-69
2022/05/27 05:45:29;;;;;;;9.57;5.82;;;;;;;13.67;100.00;100629.69;5071204;28;20097;-70
2022/05/27 05:47:56;;;;;;;12.25;6.07;;;;;;;13.76;100.00;100630.81;5025371;28;20398;-70
2022/05/27 05:50:24;;;;;;;11.48;4.70;;;;;;;13.70;100.00;100620.69;5022545;28;20299;-70
2022/05/27 05:52:52;;;;;;;5.85;3.00;;;;;;;13.57;100.00;100610.13;5038584;28;20056;-70
2022/05/27 05:55:19;;;;;;;7.07;2.95;;;;;;;13.66;100.00;100593.59;5043279;28;20609;-69
2022/05/27 05:57:48;;;;;;;6.75;3.95;;;;;;;13.67;100.00;100611.16;5056098;28;20066;-68
2022/05/27 06:00:24;;;;;;;8.10;3.80;;;;;;;13.73;100.00;100619.59;5037228;28;20506;-69
2022/05/27 06:02:51;;;;;;;6.15;3.30;;;;;;;13.59;100.00;100628.53;5029755;28;20394;-71
2022/05/27 06:05:19;;;;;;;7.90;2.60;;;;;;;13.66;100.00;100619.22;5047198;28;20211;-69
2022/05/27 06:07:46;;;;;;;5.93;2.25;;;;;;;13.56;100.00;100611.09;5039589;28;20052;-72
2022/05/27 06:10:15;;;;;;;5.60;2.40;;;;;;;13.53;99.79;100605.19;5045761;28;20048;-69
2022/05/27 06:12:42;;;;;;;6.75;2.50;;;;;;;13.52;99.13;100612.28;5052321;28;20055;-71
2022/05/27 06:15:19;;;;;;;7.60;2.88;;;;;;;13.53;100.00;100598.09;5062532;28;20068;-69
2022/05/27 06:17:46;;;;;;;6.75;2.22;;;;;;;13.41;100.00;100572.50;5043364;28;20051;-68
2022/05/27 06:20:13;;;;;;;6.40;2.15;;;;;;;13.58;100.00;100593.31;5064098;28;20044;-71
2022/05/27 06:22:40;;;;;;;6.68;2.80;;;;;;;13.68;100.00;100604.91;5044740;28;20049;-69
2022/05/27 06:25:08;;;;;;;5.20;2.33;;;;;;;13.84;100.00;100609.94;5039295;28;20041;-70
2022/05/27 06:27:35;;;;;;;5.30;2.05;;;;;;;14.00;100.00;100614.94;5041323;28;20072;-69
2022/05/27 06:35:40;;;;;;;11.60;3.65;;;;;;;13.91;98.53;100628.84;5037097;28;20388;-70
2022/05/27 06:38:08;;;;;;;5.55;2.97;;;;;;;13.90;99.33;100627.19;5053435;28;20060;-70
2022/05/27 06:40:39;;;;;;;7.35;2.58;;;;;;;14.05;99.14;100626.06;5049713;28;20124;-70
2022/05/27 06:43:06;;;;;;;6.93;2.80;;;;;;;14.17;98.21;100624.31;5057454;28;20543;-70
2022/05/27 06:45:33;;;;;;;6.95;2.53;;;;;;;14.37;98.08;100625.50;5064542;28;20135;-70
2022/05/27 06:48:01;;;;;;;6.78;3.08;;;;;;;14.49;97.30;100618.44;5054037;28;20044;-70
2022/05/27 06:50:29;;;;;;;8.70;2.92;;;;;;;14.72;96.13;100637.91;5043875;28;20063;-70
2022/05/27 06:52:57;;;;;;;7.20;2.90;;;;;;;14.86;94.87;100622.66;5036565;28;20040;-70
2022/05/27 06:55:24;;;;;;;11.40;2.90;;;;;;;14.96;92.29;100624.59;5066635;28;20060;-69
2022/05/27 06:57:51;;;;;;;5.20;2.47;;;;;;;15.10;90.78;100630.50;5050168;28;20043;-70
2022/05/27 07:00:20;;;;;;;6.30;2.53;;;;;;;15.09;88.02;100620.88;5051931;28;20160;-71
2022/05/27 07:02:47;;;;;;;6.78;2.28;;;;;;;15.17;86.50;100625.56;5068877;28;20127;-70
2022/05/27 07:05:14;;;;;;;9.20;2.45;;;;;;;15.05;85.50;100619.41;5038244;28;20048;-70
2022/05/27 07:07:41;;;;;;;8.75;2.85;;;;;;;15.01;85.85;100638.31;5045105;28;20048;-70
2022/05/27 07:10:09;;;;;;;6.25;2.20;;;;;;;15.08;84.92;100632.41;5046654;28;20056;-70
2022/05/27 07:12:36;;;;;;;7.60;3.08;;;;;;;15.19;83.65;100631.59;5045386;28;20094;-70
2022/05/27 07:15:04;;;;;;;8.07;2.80;;;;;;;15.18;82.80;100632.56;5040027;28;20045;-70
2022/05/27 07:17:31;;;;;;;8.13;2.15;;;;;;;15.02;81.36;100647.97;5080746;28;20064;-70
2022/05/27 07:19:58;;;;;;;3.67;1.88;;;;;;;15.20;81.91;100628.81;5045831;28;20059;-70
2022/05/27 07:22:26;;;;;;;7.03;1.90;;;;;;;15.07;80.94;100624.59;5046693;28;20059;-70
2022/05/27 07:24:53;;;;;;;6.72;2.08;;;;;;;15.40;79.79;100631.69;5028686;28;20044;-70
2022/05/27 07:27:21;;;;;;;8.18;2.35;;;;;;;15.33;78.91;100628.69;5052720;28;20079;-70
2022/05/27 07:29:48;;;;;;;9.43;2.83;;;;;;;15.47;79.08;100632.06;5024452;28;20119;-70
2022/05/27 07:32:16;;;;;;;8.75;1.90;;;;;;;15.49;78.54;100652.22;5031456;28;20499;-69
2022/05/27 07:34:49;;;;;;;4.63;1.95;;;;;;;15.51;76.84;100623.75;5047867;28;20049;-70
2022/05/27 07:37:16;;;;;;;8.30;2.20;;;;;;;15.50;74.91;100640.63;5043529;28;20071;-70
2022/05/27 07:39:43;;;;;;;10.00;2.72;;;;;;;15.06;74.18;100634.34;5046742;28;20083;-70
2022/05/27 07:42:10;;;;;;;5.95;1.75;;;;;;;15.16;74.90;100627.34;5047191;28;20396;-70
2022/05/27 07:44:38;;;;;;;9.15;2.03;;;;;;;15.25;73.99;100654.97;5065770;28;20533;-70
2022/05/27 07:47:06;;;;;;;5.65;2.10;;;;;;;15.41;71.31;100638.72;5047802;28;20040;-70
2022/05/27 07:49:33;;;;;;;6.43;2.10;;;;;;;15.46;71.02;100649.81;5046160;28;20061;-70
2022/05/27 07:52:01;;;;;;;7.70;1.88;;;;;;;15.15;67.50;100633.63;5060621;28;20049;-70
2022/05/27 07:54:28;;;;;;;7.82;1.60;;;;;;;14.98;67.20;100634.09;5013608;28;20139;-68
2022/05/27 07:56:56;;;;;;;6.45;1.80;;;;;;;15.29;66.49;100647.63;5047600;28;20045;-69
2022/05/27 07:59:23;;;;;;;10.40;1.77;;;;;;;15.33;59.37;100628.69;5016405;28;20503;-70
2022/05/27 08:01:50;;;;;;;4.93;2.25;;;;;;;15.35;57.15;100645.31;5045994;28;20467;-68
2022/05/27 08:04:17;;;;;;;5.68;1.58;;;;;;;15.55;54.11;100634.97;5049559;28;20141;-68
2022/05/27 08:06:45;;;;;;;8.45;1.85;;;;;;;15.59;55.65;100655.00;5068433;28;20071;-69
2022/05/27 08:09:14;;;;;;;8.13;1.70;;;;;;;15.42;53.68;100643.06;5046631;28;20070;-69
2022/05/27 08:11:41;;;;;;;5.88;2.03;;;;;;;15.19;53.62;100650.16;5035589;28;20055;-68
2022/05/27 08:14:09;;;;;;;12.60;2.55;;;;;;;15.18;53.52;100643.19;5053427;28;20052;-68
2022/05/27 08:16:39;;;;;;;12.50;2.25;;;;;;;15.34;51.99;100648.94;5071061;28;20448;-69
2022/05/27 08:19:07;;;;;;;6.18;1.70;;;;;;;15.40;51.32;100663.53;5048412;28;20056;-68
2022/05/27 08:21:36;;;;;;;9.80;1.75;;;;;;;15.66;51.78;100638.47;5032460;28;20136;-68
2022/05/27 08:24:04;;;;;;;11.63;2.45;;;;;;;15.48;52.07;100650.50;5043665;28;20050;-69
2022/05/27 08:26:31;;;;;;;15.25;2.65;;;;;;;15.58;52.66;100634.69;5054232;28;20052;-69
2022/05/27 08:28:58;;;;;;;7.85;1.85;;;;;;;15.81;52.56;100655.00;5048552;28;20048;-69
2022/05/27 08:31:26;;;;;;;9.65;1.88;;;;;;;16.00;52.39;100650.84;5052687;28;20040;-69
2022/05/27 08:39:25;;;;;;;7.13;1.60;;;;;;;15.88;51.61;100631.44;5053217;28;20561;-68
2022/05/27 08:42:03;;;;;;;11.07;2.65;;;;;;;15.65;50.61;100673.09;5050744;28;20088;-69
2022/05/27 08:44:37;;;;;;;11.38;2.05;;;;;;;15.64;51.05;100664.28;5051771;28;20080;-70
2022/05/27 08:47:21;;;;;;;13.40;2.40;;;;;;;15.84;51.29;100641.44;5031001;28;20123;-69
2022/05/27 08:49:52;;;;;;;6.40;1.70;;;;;;;16.16;51.06;100643.31;5026246;28;20470;-70
2022/05/27 08:52:24;;;;;;;6.03;1.55;;;;;;;16.54;49.86;100650.78;5050585;28;20040;-68
2022/05/27 08:55:04;;;;;;;12.82;2.80;;;;;;;16.64;49.62;100635.72;5034766;28;20048;-68
2022/05/27 09:00:24;;;;;;;9.80;1.77;;;;;;;16.32;48.54;100642.91;5054360;28;20087;-69
2022/05/27 09:03:03;;;;;;;9.15;2.05;;;;;;;16.15;49.32;100647.78;5047932;28;20072;-68
2022/05/27 09:05:41;;;;;;;7.90;1.95;;;;;;;16.14;46.45;100672.66;5051131;28;20388;-68
2022/05/27 09:08:24;;;;;;;8.15;1.98;;;;;;;16.26;44.62;100641.59;5067821;28;20139;-69
2022/05/27 09:11:13;;;;;;;12.15;2.28;;;;;;;16.13;44.08;100651.53;5029299;28;20132;-69
2022/05/27 09:13:41;;;;;;;6.88;1.58;;;;;;;15.97;44.30;100678.47;5055102;28;20044;-68
2022/05/27 09:16:29;;;;;;;6.97;1.50;;;;;;;16.14;44.97;100659.38;5031317;28;20211;-68
2022/05/27 09:19:09;;;;;;;9.10;1.98;;;;;;;15.94;44.05;100654.84;5051245;28;20059;-69
2022/05/27 09:21:59;;;;;;;5.53;1.95;;;;;;;16.24;43.86;100658.63;5050620;28;20114;-68
2022/05/27 09:24:45;;;;;;;10.73;2.00;;;;;;;16.43;43.73;100638.34;5027002;28;20044;-69
2022/05/27 09:27:21;;;;;;;9.50;2.25;;;;;;;16.71;42.66;100655.53;5070668;28;20417;-68
2022/05/27 09:29:59;;;;;;;7.50;2.20;;;;;;;16.62;43.26;100655.47;5037978;28;20041;-70
2022/05/27 09:32:33;;;;;;;11.43;2.40;;;;;;;16.62;43.27;100647.47;5046071;28;20044;-68
2022/05/27 09:35:08;;;;;;;8.70;1.88;;;;;;;16.62;43.80;100642.16;5031947;28;20060;-69
2022/05/27 09:38:00;;;;;;;4.53;1.55;;;;;;;16.99;43.63;100655.03;5043602;28;20052;-70
2022/05/27 09:40:42;;;;;;;6.10;1.88;;;;;;;16.68;44.11;100647.78;5025437;28;20140;-69
2022/05/27 09:43:28;;;;;;;9.95;1.67;;;;;;;16.30;44.67;100645.69;5044774;28;20055;-69
2022/05/27 09:45:56;;;;;;;;;;;;;;;16.24;45.00;100640.03;5063590;28;20511;-70
2022/05/27 09:48:25;;;;;;;11.55;2.50;;;;;;;16.49;44.91;100641.50;5051641;28;19920;-70
2022/05/27 09:50:53;;;;;;;9.32;1.88;;;;;;;16.42;45.08;100633.19;5049694;28;20049;-69
2022/05/27 09:53:28;;;;;;;13.02;2.65;;;;;;;16.65;45.43;100645.38;5039329;28;20131;-70
2022/05/27 09:56:02;;;;;;;12.52;2.95;;;;;;;16.81;45.07;100636.16;5060351;28;20052;-70
2022/05/27 09:58:41;;;;;;;6.63;1.73;;;;;;;16.61;45.44;100640.44;5050919;28;20164;-70
2022/05/27 10:01:23;;;;;;;15.75;2.30;;;;;;;16.43;45.19;100637.53;5046883;28;20060;-70
2022/05/27 10:04:06;;;;;;;8.75;2.70;;;;;;;16.41;45.45;100639.47;5071125;28;20127;-70
2022/05/27 10:06:35;;;;;;;12.10;2.38;;;;;;;16.39;45.47;100658.22;5038872;28;20048;-68
2022/05/27 10:09:05;;;;;;;14.32;2.22;;;;;;;16.59;43.29;100635.28;5030437;28;20052;-71
2022/05/27 10:11:33;;;;;;;9.50;2.15;;;;;;;16.96;43.08;100640.16;5056309;28;20063;-71
2022/05/27 10:14:33;;;;;;;6.82;1.95;;;;;;;17.29;42.53;100652.41;5030453;28;20052;-70
2022/05/27 10:17:12;;;;;;;11.60;2.63;;;;;;;17.35;43.03;100654.50;5045827;28;20056;-71
2022/05/27 10:19:46;;;;;;;10.75;2.13;;;;;;;17.41;43.46;100631.84;5042079;28;20101;-72
2022/05/27 10:22:25;;;;;;;15.02;2.33;;;;;;;17.43;43.31;100644.06;5037836;28;20064;-71
2022/05/27 10:25:00;;;;;;;9.27;1.98;;;;;;;17.53;42.36;100653.88;5047248;28;20055;-71
2022/05/27 10:27:37;;;;;;;8.15;2.13;;;;;;;17.77;42.45;100650.91;5065522;28;20059;-71
2022/05/27 10:30:09;;;;;;;13.55;2.33;;;;;;;17.43;42.79;100641.41;5041454;28;20427;-70
2022/05/27 10:32:41;;;;;;;8.68;1.92;;;;;;;17.11;43.60;100633.53;5071567;28;20040;-70
2022/05/27 10:35:21;;;;;;;8.48;2.38;;;;;;;17.12;42.98;100640.53;5060946;28;20151;-70
2022/05/27 10:38:07;;;;;;;7.65;1.88;;;;;;;17.03;43.27;100633.34;5078043;28;20066;-69
2022/05/27 10:40:37;;;;;;;6.18;1.83;;;;;;;17.07;43.50;100648.09;5045507;28;20052;-71
2022/05/27 10:43:29;;;;;;;7.90;2.25;;;;;;;17.01;43.56;100643.28;5044752;28;20047;-69
2022/05/27 10:45:58;;;;;;;11.48;2.00;;;;;;;16.84;44.04;100638.53;5049275;28;20044;-69
2022/05/27 10:48:31;;;;;;;10.82;2.00;;;;;;;17.08;43.65;100644.44;5038756;28;20045;-69
2022/05/27 10:51:26;;;;;;;19.13;3.00;;;;;;;17.27;43.87;100661.47;5049873;28;20059;-70
2022/05/27 10:54:03;;;;;;;7.20;2.10;;;;;;;17.28;43.74;100640.03;5042897;28;20037;-69
2022/05/27 11:02:04;;;;;;;12.48;2.20;;;;;;;17.24;43.30;100677.69;5072319;28;20083;-69
2022/05/27 11:02:37;;;;;;;9.05;3.20;;;;;;;17.27;42.75;100627.72;5031984;28;20048;-69
2022/05/27 11:05:20;;;;;;;10.82;3.58;;;;;;;17.43;42.64;100620.09;5054011;28;20054;-69
2022/05/27 11:08:14;;;;;;;10.52;2.47;;;;;;;17.53;40.38;100620.13;5051101;28;20058;-69
2022/05/27 11:10:53;;;;;;;8.88;2.53;;;;;;;17.70;40.75;100619.47;5071021;28;20060;-70
2022/05/27 11:17:00;;;;;;;11.07;2.33;;;;;;;18.34;39.75;100602.19;5071948;28;20060;-70
2022/05/27 11:20:04;;;;;;;6.72;2.00;;;;;;;18.22;39.76;100617.47;5060435;28;20078;-69
2022/05/27 11:22:48;;;;;;;8.93;2.28;;;;;;;18.02;40.16;100602.47;5037103;28;20053;-70
2022/05/27 11:25:30;;;;;;;7.78;1.88;;;;;;;17.63;40.30;100607.69;5010021;28;20051;-71
2022/05/27 11:28:16;;;;;;;12.13;2.20;;;;;;;17.32;39.42;100619.34;5067171;28;20104;-70
2022/05/27 11:31:24;;;;;;;5.38;2.10;;;;;;;17.05;39.90;100610.13;5053277;28;20049;-70
2022/05/27 11:34:04;;;;;;;9.30;2.20;;;;;;;16.88;40.11;100624.84;5064809;28;20060;-70
2022/05/27 11:36:31;;;;;;;10.93;1.88;;;;;;;17.01;40.95;100595.41;5066156;28;20079;-69
2022/05/27 11:39:17;;;;;;;12.60;2.15;;;;;;;17.39;40.90;100602.72;5050757;28;20082;-70
2022/05/27 11:42:11;;;;;;;5.75;2.03;;;;;;;18.04;40.33;100595.16;5028745;28;20500;-70
2022/05/27 11:44:45;;;;;;;9.50;2.50;;;;;;;17.94;39.95;100581.84;5035337;28;20056;-69
2022/05/27 11:47:38;;;;;;;7.70;2.10;;;;;;;18.11;40.82;100595.47;5051415;28;20045;-70
2022/05/27 11:50:36;;;;;;;7.05;2.00;;;;;;;17.43;40.81;100593.50;5040830;28;20132;-68
2022/05/27 11:53:42;;;;;;;7.32;2.30;;;;;;;16.98;41.63;100622.28;5028350;28;20090;-70
2022/05/27 11:56:17;;;;;;;10.80;2.45;;;;;;;16.53;42.58;100625.19;5065474;28;20049;-70
2022/05/27 11:59:05;;;;;;;12.00;2.15;;;;;;;16.25;44.73;100631.06;5044325;28;20140;-70
2022/05/27 12:01:37;;;;;;;8.25;2.00;;;;;;;15.77;47.83;100658.84;5032150;28;20054;-71
2022/05/27 12:04:13;;;;;;;11.75;2.20;;;;;;;15.05;50.63;100672.44;5049666;28;20128;-71
2022/05/27 12:06:48;;;;;;;14.23;2.38;;;;;;;15.08;52.71;100664.22;5041902;28;20055;-70
2022/05/27 12:09:32;;;;;;;10.23;2.28;;;;;;;15.35;51.92;100657.75;5048058;28;20052;-70
2022/05/27 12:12:06;;;;;;;12.05;2.05;;;;;;;15.54;52.21;100627.97;5036405;28;20147;-69